sensor_id;sensor_type;location;lat;lon;timestamp;P1;durP1;ratioP1;P2;durP2;ratioP2
72123;SDS011;63818;37.134;-8.548;2023-05-20T00:03:52;11.4;;;7.1;;
72123;SDS011;63818;37.134;-8.548;2023-05-20T00:08:41;11.9;;;6.9;;
72123;SDS011;63818;37.134;-8.548;2023-05-20T00:13:27;17.5;;;6.9;;
72123;SDS011;63818;37.134;-8.548;2023-05-20T00:18:16;17.0;;;7.2;;
72123;SDS011;63818;37.134;-8.548;2023-05-20T00:23:07;13.9;;;7.6;;
72123;SDS011;63818;37.134;-8.548;2023-05-20T00:27:53;14.4;;;7.8;;
72123;SDS011;63818;37.134;-8.548;2023-05-20T00:32:39;14.6;;;7.9;;
72123;SDS011;63818;37.134;-8.548;2023-05-20T00:37:31;15.6;;;8.2;;
72123;SDS011;63818;37.134;-8.548;2023-05-20T00:42:22;18.6;;;8.8;;
72123;SDS011;63818;37.134;-8.548;2023-05-20T00:47:09;19.6;;;8.8;;
72123;SDS011;63818;37.134;-8.548;2023-05-20T00:51:58;15.2;;;8.0;;
72123;SDS011;63818;37.134;-8.548;2023-05-20T00:56:44;14.8;;;8.5;;
72123;SDS011;63818;37.134;-8.548;2023-05-20T01:01:30;15.1;;;8.7;;
72123;SDS011;63818;37.134;-8.548;2023-05-20T01:06:16;15.2;;;8.4;;
72123;SDS011;63818;37.134;-8.548;2023-05-20T01:11:05;18.9;;;8.8;;
72123;SDS011;63818;37.134;-8.548;2023-05-20T01:15:53;19.8;;;8.6;;
72123;SDS011;63818;37.134;-8.548;2023-05-20T01:20:40;18.4;;;8.8;;
72123;SDS011;63818;37.134;-8.548;2023-05-20T01:25:29;18.2;;;9.0;;
72123;SDS011;63818;37.134;-8.548;2023-05-20T01:30:17;16.2;;;8.6;;
72123;SDS011;63818;37.134;-8.548;2023-05-20T01:35:03;14.3;;;8.4;;
72123;SDS011;63818;37.134;-8.548;2023-05-20T01:39:51;15.7;;;8.8;;
72123;SDS011;63818;37.134;-8.548;2023-05-20T01:44:38;19.4;;;9.1;;
72123;SDS011;63818;37.134;-8.548;2023-05-20T01:49:24;18.2;;;8.7;;
72123;SDS011;63818;37.134;-8.548;2023-05-20T01:54:11;15.3;;;8.9;;
72123;SDS011;63818;37.134;-8.548;2023-05-20T01:58:59;18.8;;;9.1;;
72123;SDS011;63818;37.134;-8.548;2023-05-20T02:03:47;17.8;;;8.8;;
72123;SDS011;63818;37.134;-8.548;2023-05-20T02:08:33;15.9;;;9.1;;
72123;SDS011;63818;37.134;-8.548;2023-05-20T02:13:22;17.7;;;9.4;;
72123;SDS011;63818;37.134;-8.548;2023-05-20T02:18:08;15.1;;;9.1;;
72123;SDS011;63818;37.134;-8.548;2023-05-20T02:22:54;14.6;;;8.9;;
72123;SDS011;63818;37.134;-8.548;2023-05-20T02:27:40;15.8;;;9.0;;
72123;SDS011;63818;37.134;-8.548;2023-05-20T02:32:26;16.5;;;9.6;;
72123;SDS011;63818;37.134;-8.548;2023-05-20T02:37:12;16.2;;;10.1;;
72123;SDS011;63818;37.134;-8.548;2023-05-20T02:41:57;15.7;;;9.7;;
72123;SDS011;63818;37.134;-8.548;2023-05-20T02:46:43;14.3;;;8.9;;
72123;SDS011;63818;37.134;-8.548;2023-05-20T02:51:33;13.6;;;9.1;;
72123;SDS011;63818;37.134;-8.548;2023-05-20T02:56:18;16.9;;;9.5;;
72123;SDS011;63818;37.134;-8.548;2023-05-20T03:01:04;19.0;;;9.3;;
72123;SDS011;63818;37.134;-8.548;2023-05-20T03:05:51;18.2;;;9.1;;
72123;SDS011;63818;37.134;-8.548;2023-05-20T03:10:36;19.0;;;9.1;;
72123;SDS011;63818;37.134;-8.548;2023-05-20T03:15:25;19.8;;;9.4;;
72123;SDS011;63818;37.134;-8.548;2023-05-20T03:20:11;18.9;;;9.8;;
72123;SDS011;63818;37.134;-8.548;2023-05-20T03:25:00;17.3;;;10.4;;
72123;SDS011;63818;37.134;-8.548;2023-05-20T03:29:46;16.9;;;10.3;;
72123;SDS011;63818;37.134;-8.548;2023-05-20T03:34:34;18.9;;;9.8;;
72123;SDS011;63818;37.134;-8.548;2023-05-20T03:39:19;19.1;;;9.9;;
72123;SDS011;63818;37.134;-8.548;2023-05-20T03:44:07;15.9;;;9.7;;
72123;SDS011;63818;37.134;-8.548;2023-05-20T03:48:54;19.1;;;9.9;;
72123;SDS011;63818;37.134;-8.548;2023-05-20T03:53:40;21.5;;;10.1;;
72123;SDS011;63818;37.134;-8.548;2023-05-20T03:58:29;18.4;;;9.9;;
72123;SDS011;63818;37.134;-8.548;2023-05-20T04:03:17;15.9;;;9.9;;
72123;SDS011;63818;37.134;-8.548;2023-05-20T04:08:08;17.7;;;10.6;;
72123;SDS011;63818;37.134;-8.548;2023-05-20T04:12:56;19.4;;;11.0;;
72123;SDS011;63818;37.134;-8.548;2023-05-20T04:17:42;16.0;;;10.7;;
72123;SDS011;63818;37.134;-8.548;2023-05-20T04:22:30;16.6;;;10.7;;
72123;SDS011;63818;37.134;-8.548;2023-05-20T04:27:19;15.8;;;10.2;;
72123;SDS011;63818;37.134;-8.548;2023-05-20T04:32:05;13.2;;;9.8;;
72123;SDS011;63818;37.134;-8.548;2023-05-20T04:36:56;16.7;;;10.3;;
72123;SDS011;63818;37.134;-8.548;2023-05-20T04:41:46;20.2;;;10.5;;
72123;SDS011;63818;37.134;-8.548;2023-05-20T04:46:34;17.4;;;10.2;;
72123;SDS011;63818;37.134;-8.548;2023-05-20T04:51:21;18.7;;;10.2;;
72123;SDS011;63818;37.134;-8.548;2023-05-20T04:56:08;22.3;;;10.5;;
72123;SDS011;63818;37.134;-8.548;2023-05-20T05:01:17;19.7;;;10.4;;
72123;SDS011;63818;37.134;-8.548;2023-05-20T05:06:03;17.6;;;10.1;;
72123;SDS011;63818;37.134;-8.548;2023-05-20T05:10:57;16.3;;;10.1;;
72123;SDS011;63818;37.134;-8.548;2023-05-20T05:15:43;18.9;;;10.6;;
72123;SDS011;63818;37.134;-8.548;2023-05-20T05:20:43;20.1;;;10.5;;
72123;SDS011;63818;37.134;-8.548;2023-05-20T05:25:31;17.4;;;10.0;;
72123;SDS011;63818;37.134;-8.548;2023-05-20T05:30:17;18.0;;;9.9;;
72123;SDS011;63818;37.134;-8.548;2023-05-20T05:35:09;23.1;;;10.0;;
72123;SDS011;63818;37.134;-8.548;2023-05-20T05:39:55;24.4;;;11.2;;
72123;SDS011;63818;37.134;-8.548;2023-05-20T05:44:41;23.0;;;11.6;;
72123;SDS011;63818;37.134;-8.548;2023-05-20T05:49:27;21.0;;;10.9;;
72123;SDS011;63818;37.134;-8.548;2023-05-20T05:54:14;19.2;;;10.6;;
72123;SDS011;63818;37.134;-8.548;2023-05-20T05:59:00;23.4;;;11.2;;
72123;SDS011;63818;37.134;-8.548;2023-05-20T06:03:48;22.1;;;11.0;;
72123;SDS011;63818;37.134;-8.548;2023-05-20T06:08:34;19.4;;;10.7;;
72123;SDS011;63818;37.134;-8.548;2023-05-20T06:13:20;19.1;;;10.7;;
72123;SDS011;63818;37.134;-8.548;2023-05-20T06:18:08;17.8;;;10.7;;
72123;SDS011;63818;37.134;-8.548;2023-05-20T06:22:56;19.0;;;11.0;;
72123;SDS011;63818;37.134;-8.548;2023-05-20T06:27:46;18.4;;;10.8;;
72123;SDS011;63818;37.134;-8.548;2023-05-20T06:32:33;17.2;;;10.8;;
72123;SDS011;63818;37.134;-8.548;2023-05-20T06:37:22;20.1;;;11.3;;
72123;SDS011;63818;37.134;-8.548;2023-05-20T06:42:09;22.0;;;11.9;;
72123;SDS011;63818;37.134;-8.548;2023-05-20T06:46:58;20.6;;;12.1;;
72123;SDS011;63818;37.134;-8.548;2023-05-20T06:51:46;18.2;;;11.6;;
72123;SDS011;63818;37.134;-8.548;2023-05-20T06:56:35;19.7;;;11.4;;
72123;SDS011;63818;37.134;-8.548;2023-05-20T07:01:22;25.0;;;12.3;;
72123;SDS011;63818;37.134;-8.548;2023-05-20T07:06:14;25.2;;;12.2;;
72123;SDS011;63818;37.134;-8.548;2023-05-20T07:11:04;21.8;;;12.2;;
72123;SDS011;63818;37.134;-8.548;2023-05-20T07:15:52;23.4;;;13.0;;
72123;SDS011;63818;37.134;-8.548;2023-05-20T07:20:38;25.7;;;13.5;;
72123;SDS011;63818;37.134;-8.548;2023-05-20T07:25:24;23.3;;;13.3;;
72123;SDS011;63818;37.134;-8.548;2023-05-20T07:30:10;22.6;;;12.8;;
72123;SDS011;63818;37.134;-8.548;2023-05-20T07:34:57;23.0;;;12.9;;
72123;SDS011;63818;37.134;-8.548;2023-05-20T07:39:53;21.3;;;12.8;;
72123;SDS011;63818;37.134;-8.548;2023-05-20T07:44:39;19.4;;;12.7;;
72123;SDS011;63818;37.134;-8.548;2023-05-20T07:49:25;20.6;;;13.6;;
72123;SDS011;63818;37.134;-8.548;2023-05-20T07:54:13;22.7;;;14.0;;
72123;SDS011;63818;37.134;-8.548;2023-05-20T07:58:59;22.4;;;13.2;;
72123;SDS011;63818;37.134;-8.548;2023-05-20T08:03:47;22.0;;;13.4;;
72123;SDS011;63818;37.134;-8.548;2023-05-20T08:13:24;20.7;;;13.2;;
72123;SDS011;63818;37.134;-8.548;2023-05-20T08:18:11;20.9;;;13.5;;
72123;SDS011;63818;37.134;-8.548;2023-05-20T08:23:01;21.6;;;13.5;;
72123;SDS011;63818;37.134;-8.548;2023-05-20T08:27:49;20.4;;;13.2;;
72123;SDS011;63818;37.134;-8.548;2023-05-20T08:32:39;22.2;;;13.6;;
72123;SDS011;63818;37.134;-8.548;2023-05-20T08:37:25;24.0;;;13.9;;
72123;SDS011;63818;37.134;-8.548;2023-05-20T08:42:12;23.5;;;13.6;;
72123;SDS011;63818;37.134;-8.548;2023-05-20T08:47:03;22.5;;;13.0;;
72123;SDS011;63818;37.134;-8.548;2023-05-20T08:51:53;20.5;;;12.8;;
72123;SDS011;63818;37.134;-8.548;2023-05-20T08:56:42;21.0;;;12.7;;
72123;SDS011;63818;37.134;-8.548;2023-05-20T09:01:28;23.1;;;12.6;;
72123;SDS011;63818;37.134;-8.548;2023-05-20T09:06:17;20.6;;;12.2;;
72123;SDS011;63818;37.134;-8.548;2023-05-20T09:11:03;19.1;;;12.1;;
72123;SDS011;63818;37.134;-8.548;2023-05-20T09:15:49;20.7;;;11.6;;
72123;SDS011;63818;37.134;-8.548;2023-05-20T09:20:35;19.8;;;11.3;;
72123;SDS011;63818;37.134;-8.548;2023-05-20T09:25:25;20.6;;;11.5;;
72123;SDS011;63818;37.134;-8.548;2023-05-20T09:30:14;22.9;;;12.1;;
72123;SDS011;63818;37.134;-8.548;2023-05-20T09:34:59;20.6;;;12.1;;
72123;SDS011;63818;37.134;-8.548;2023-05-20T09:39:48;20.7;;;12.3;;
72123;SDS011;63818;37.134;-8.548;2023-05-20T09:44:42;25.0;;;12.8;;
72123;SDS011;63818;37.134;-8.548;2023-05-20T09:49:29;23.0;;;12.4;;
72123;SDS011;63818;37.134;-8.548;2023-05-20T09:54:18;19.7;;;12.1;;
72123;SDS011;63818;37.134;-8.548;2023-05-20T09:59:05;21.5;;;12.2;;
72123;SDS011;63818;37.134;-8.548;2023-05-20T10:03:56;21.6;;;12.5;;
72123;SDS011;63818;37.134;-8.548;2023-05-20T10:08:50;22.5;;;12.4;;
72123;SDS011;63818;37.134;-8.548;2023-05-20T10:14:22;23.3;;;12.1;;
72123;SDS011;63818;37.134;-8.548;2023-05-20T10:19:20;18.9;;;11.7;;
72123;SDS011;63818;37.134;-8.548;2023-05-20T10:24:12;16.0;;;11.2;;
72123;SDS011;63818;37.134;-8.548;2023-05-20T10:29:00;18.7;;;11.2;;
72123;SDS011;63818;37.134;-8.548;2023-05-20T10:33:51;28.0;;;11.9;;
72123;SDS011;63818;37.134;-8.548;2023-05-20T10:38:38;28.2;;;13.0;;
72123;SDS011;63818;37.134;-8.548;2023-05-20T10:43:41;23.7;;;12.6;;
72123;SDS011;63818;37.134;-8.548;2023-05-20T10:48:27;20.9;;;11.4;;
72123;SDS011;63818;37.134;-8.548;2023-05-20T10:53:15;18.9;;;12.0;;
72123;SDS011;63818;37.134;-8.548;2023-05-20T10:58:08;20.7;;;11.9;;
72123;SDS011;63818;37.134;-8.548;2023-05-20T11:02:55;22.6;;;11.2;;
72123;SDS011;63818;37.134;-8.548;2023-05-20T11:07:42;21.6;;;11.2;;
72123;SDS011;63818;37.134;-8.548;2023-05-20T11:12:35;21.1;;;11.5;;
72123;SDS011;63818;37.134;-8.548;2023-05-20T11:17:21;20.1;;;11.4;;
72123;SDS011;63818;37.134;-8.548;2023-05-20T11:22:11;20.0;;;11.2;;
72123;SDS011;63818;37.134;-8.548;2023-05-20T11:26:58;22.6;;;11.7;;
72123;SDS011;63818;37.134;-8.548;2023-05-20T11:31:46;21.2;;;11.7;;
72123;SDS011;63818;37.134;-8.548;2023-05-20T11:36:33;21.0;;;11.3;;
72123;SDS011;63818;37.134;-8.548;2023-05-20T11:41:19;20.5;;;11.2;;
72123;SDS011;63818;37.134;-8.548;2023-05-20T11:46:10;18.2;;;10.9;;
72123;SDS011;63818;37.134;-8.548;2023-05-20T11:50:58;22.7;;;10.8;;
72123;SDS011;63818;37.134;-8.548;2023-05-20T11:55:48;23.5;;;11.0;;
72123;SDS011;63818;37.134;-8.548;2023-05-20T12:00:36;22.8;;;11.1;;
72123;SDS011;63818;37.134;-8.548;2023-05-20T12:05:22;23.4;;;11.3;;
72123;SDS011;63818;37.134;-8.548;2023-05-20T12:10:16;22.0;;;11.0;;
72123;SDS011;63818;37.134;-8.548;2023-05-20T12:15:05;22.2;;;10.8;;
72123;SDS011;63818;37.134;-8.548;2023-05-20T12:19:53;20.5;;;11.3;;
72123;SDS011;63818;37.134;-8.548;2023-05-20T12:24:40;20.3;;;10.8;;
72123;SDS011;63818;37.134;-8.548;2023-05-20T12:29:28;18.9;;;9.4;;
72123;SDS011;63818;37.134;-8.548;2023-05-20T12:34:14;16.2;;;9.2;;
72123;SDS011;63818;37.134;-8.548;2023-05-20T12:39:05;18.0;;;9.9;;
72123;SDS011;63818;37.134;-8.548;2023-05-20T12:43:56;22.0;;;10.4;;
72123;SDS011;63818;37.134;-8.548;2023-05-20T12:48:42;21.8;;;10.1;;
72123;SDS011;63818;37.134;-8.548;2023-05-20T12:53:28;20.1;;;10.0;;
72123;SDS011;63818;37.134;-8.548;2023-05-20T12:58:14;17.9;;;10.1;;
72123;SDS011;63818;37.134;-8.548;2023-05-20T13:03:05;18.2;;;9.8;;
72123;SDS011;63818;37.134;-8.548;2023-05-20T13:07:51;19.3;;;9.3;;
72123;SDS011;63818;37.134;-8.548;2023-05-20T13:12:37;18.9;;;9.7;;
72123;SDS011;63818;37.134;-8.548;2023-05-20T13:17:23;18.8;;;10.3;;
72123;SDS011;63818;37.134;-8.548;2023-05-20T13:22:12;18.7;;;9.6;;
72123;SDS011;63818;37.134;-8.548;2023-05-20T13:27:00;17.1;;;9.5;;
72123;SDS011;63818;37.134;-8.548;2023-05-20T13:31:52;20.1;;;10.2;;
72123;SDS011;63818;37.134;-8.548;2023-05-20T13:36:43;23.3;;;9.7;;
72123;SDS011;63818;37.134;-8.548;2023-05-20T13:41:29;22.2;;;9.5;;
72123;SDS011;63818;37.134;-8.548;2023-05-20T13:46:17;23.5;;;9.6;;
72123;SDS011;63818;37.134;-8.548;2023-05-20T13:51:03;21.7;;;9.6;;
72123;SDS011;63818;37.134;-8.548;2023-05-20T13:55:52;18.1;;;9.6;;
72123;SDS011;63818;37.134;-8.548;2023-05-20T14:00:42;19.0;;;9.0;;
72123;SDS011;63818;37.134;-8.548;2023-05-20T14:05:28;20.0;;;8.5;;
72123;SDS011;63818;37.134;-8.548;2023-05-20T14:10:16;24.0;;;9.0;;
72123;SDS011;63818;37.134;-8.548;2023-05-20T14:15:05;26.6;;;10.0;;
72123;SDS011;63818;37.134;-8.548;2023-05-20T14:19:55;24.1;;;10.0;;
72123;SDS011;63818;37.134;-8.548;2023-05-20T14:24:41;20.8;;;9.6;;
72123;SDS011;63818;37.134;-8.548;2023-05-20T14:29:30;22.2;;;9.9;;
72123;SDS011;63818;37.134;-8.548;2023-05-20T14:34:18;23.5;;;9.6;;
72123;SDS011;63818;37.134;-8.548;2023-05-20T14:39:06;21.9;;;9.1;;
72123;SDS011;63818;37.134;-8.548;2023-05-20T14:43:52;21.3;;;9.0;;
72123;SDS011;63818;37.134;-8.548;2023-05-20T14:48:39;21.7;;;9.5;;
72123;SDS011;63818;37.134;-8.548;2023-05-20T14:53:27;22.6;;;9.9;;
72123;SDS011;63818;37.134;-8.548;2023-05-20T14:58:15;22.6;;;9.7;;
72123;SDS011;63818;37.134;-8.548;2023-05-20T15:03:09;27.7;;;9.3;;
72123;SDS011;63818;37.134;-8.548;2023-05-20T15:07:54;29.0;;;9.4;;
72123;SDS011;63818;37.134;-8.548;2023-05-20T15:12:40;21.2;;;9.4;;
72123;SDS011;63818;37.134;-8.548;2023-05-20T15:17:33;22.3;;;8.8;;
72123;SDS011;63818;37.134;-8.548;2023-05-20T15:22:21;24.3;;;8.7;;
72123;SDS011;63818;37.134;-8.548;2023-05-20T15:27:07;20.9;;;9.6;;
72123;SDS011;63818;37.134;-8.548;2023-05-20T15:31:56;22.3;;;9.3;;
72123;SDS011;63818;37.134;-8.548;2023-05-20T15:36:44;21.3;;;8.8;;
72123;SDS011;63818;37.134;-8.548;2023-05-20T15:41:33;21.3;;;9.6;;
72123;SDS011;63818;37.134;-8.548;2023-05-20T15:46:21;21.8;;;9.4;;
72123;SDS011;63818;37.134;-8.548;2023-05-20T15:51:09;23.2;;;9.3;;
72123;SDS011;63818;37.134;-8.548;2023-05-20T15:55:57;25.3;;;9.6;;
72123;SDS011;63818;37.134;-8.548;2023-05-20T16:00:45;25.1;;;9.3;;
72123;SDS011;63818;37.134;-8.548;2023-05-20T16:05:31;14.1;;;9.2;;
72123;SDS011;63818;37.134;-8.548;2023-05-20T16:10:20;18.6;;;9.3;;
72123;SDS011;63818;37.134;-8.548;2023-05-20T16:15:07;20.2;;;10.2;;
72123;SDS011;63818;37.134;-8.548;2023-05-20T16:19:57;18.4;;;11.9;;
72123;SDS011;63818;37.134;-8.548;2023-05-20T16:24:43;20.5;;;12.4;;
72123;SDS011;63818;37.134;-8.548;2023-05-20T16:29:32;21.6;;;12.8;;
72123;SDS011;63818;37.134;-8.548;2023-05-20T16:34:19;25.5;;;12.6;;
72123;SDS011;63818;37.134;-8.548;2023-05-20T16:39:05;24.8;;;11.3;;
72123;SDS011;63818;37.134;-8.548;2023-05-20T16:43:53;18.0;;;11.0;;
72123;SDS011;63818;37.134;-8.548;2023-05-20T16:48:40;15.4;;;10.6;;
72123;SDS011;63818;37.134;-8.548;2023-05-20T16:53:35;19.0;;;10.6;;
72123;SDS011;63818;37.134;-8.548;2023-05-20T16:58:22;22.0;;;10.6;;
72123;SDS011;63818;37.134;-8.548;2023-05-20T17:03:09;22.6;;;9.8;;
72123;SDS011;63818;37.134;-8.548;2023-05-20T17:07:55;22.4;;;10.2;;
72123;SDS011;63818;37.134;-8.548;2023-05-20T17:12:46;24.7;;;10.2;;
72123;SDS011;63818;37.134;-8.548;2023-05-20T17:17:32;26.4;;;9.8;;
72123;SDS011;63818;37.134;-8.548;2023-05-20T17:22:20;21.6;;;9.8;;
72123;SDS011;63818;37.134;-8.548;2023-05-20T17:27:06;21.9;;;9.4;;
72123;SDS011;63818;37.134;-8.548;2023-05-20T17:31:53;24.6;;;9.2;;
72123;SDS011;63818;37.134;-8.548;2023-05-20T17:36:38;23.4;;;8.9;;
72123;SDS011;63818;37.134;-8.548;2023-05-20T17:41:24;21.0;;;8.7;;
72123;SDS011;63818;37.134;-8.548;2023-05-20T17:46:10;20.3;;;9.2;;
72123;SDS011;63818;37.134;-8.548;2023-05-20T17:50:57;21.5;;;9.6;;
72123;SDS011;63818;37.134;-8.548;2023-05-20T17:55:43;20.7;;;9.1;;
72123;SDS011;63818;37.134;-8.548;2023-05-20T18:00:31;19.6;;;9.0;;
72123;SDS011;63818;37.134;-8.548;2023-05-20T18:05:18;20.2;;;9.1;;
72123;SDS011;63818;37.134;-8.548;2023-05-20T18:10:06;19.0;;;8.8;;
72123;SDS011;63818;37.134;-8.548;2023-05-20T18:14:53;17.1;;;8.3;;
72123;SDS011;63818;37.134;-8.548;2023-05-20T18:19:38;16.5;;;8.2;;
72123;SDS011;63818;37.134;-8.548;2023-05-20T18:24:27;17.7;;;9.1;;
72123;SDS011;63818;37.134;-8.548;2023-05-20T18:29:13;20.7;;;9.0;;
72123;SDS011;63818;37.134;-8.548;2023-05-20T18:34:01;20.4;;;8.8;;
72123;SDS011;63818;37.134;-8.548;2023-05-20T18:38:47;19.9;;;9.3;;
72123;SDS011;63818;37.134;-8.548;2023-05-20T18:43:33;18.8;;;8.7;;
72123;SDS011;63818;37.134;-8.548;2023-05-20T18:48:19;17.6;;;7.8;;
72123;SDS011;63818;37.134;-8.548;2023-05-20T18:53:06;15.2;;;7.4;;
72123;SDS011;63818;37.134;-8.548;2023-05-20T18:57:57;12.2;;;7.3;;
72123;SDS011;63818;37.134;-8.548;2023-05-20T19:02:42;14.3;;;7.3;;
72123;SDS011;63818;37.134;-8.548;2023-05-20T19:07:31;13.6;;;7.4;;
72123;SDS011;63818;37.134;-8.548;2023-05-20T19:12:17;13.6;;;7.5;;
72123;SDS011;63818;37.134;-8.548;2023-05-20T19:17:03;14.2;;;7.9;;
72123;SDS011;63818;37.134;-8.548;2023-05-20T19:21:58;16.9;;;8.2;;
72123;SDS011;63818;37.134;-8.548;2023-05-20T19:26:44;21.9;;;8.8;;
72123;SDS011;63818;37.134;-8.548;2023-05-20T19:31:35;18.1;;;8.9;;
72123;SDS011;63818;37.134;-8.548;2023-05-20T19:36:29;13.1;;;8.5;;
72123;SDS011;63818;37.134;-8.548;2023-05-20T19:41:17;15.9;;;7.9;;
72123;SDS011;63818;37.134;-8.548;2023-05-20T19:46:03;16.9;;;7.7;;
72123;SDS011;63818;37.134;-8.548;2023-05-20T19:50:49;17.1;;;8.2;;
72123;SDS011;63818;37.134;-8.548;2023-05-20T19:55:36;19.1;;;8.2;;
72123;SDS011;63818;37.134;-8.548;2023-05-20T20:00:22;19.6;;;8.1;;
72123;SDS011;63818;37.134;-8.548;2023-05-20T20:05:12;17.2;;;7.8;;
72123;SDS011;63818;37.134;-8.548;2023-05-20T20:10:00;17.7;;;8.0;;
72123;SDS011;63818;37.134;-8.548;2023-05-20T20:14:48;18.1;;;8.9;;
72123;SDS011;63818;37.134;-8.548;2023-05-20T20:24:29;17.4;;;10.1;;
72123;SDS011;63818;37.134;-8.548;2023-05-20T20:29:26;19.1;;;10.2;;
72123;SDS011;63818;37.134;-8.548;2023-05-20T20:34:17;19.4;;;9.5;;
72123;SDS011;63818;37.134;-8.548;2023-05-20T20:39:03;19.2;;;9.6;;
72123;SDS011;63818;37.134;-8.548;2023-05-20T20:43:49;18.8;;;10.0;;
72123;SDS011;63818;37.134;-8.548;2023-05-20T20:48:37;18.0;;;10.1;;
72123;SDS011;63818;37.134;-8.548;2023-05-20T20:53:25;18.7;;;9.8;;
72123;SDS011;63818;37.134;-8.548;2023-05-20T20:58:11;17.0;;;9.7;;
72123;SDS011;63818;37.134;-8.548;2023-05-20T21:02:58;16.7;;;9.9;;
72123;SDS011;63818;37.134;-8.548;2023-05-20T21:07:49;22.3;;;10.2;;
72123;SDS011;63818;37.134;-8.548;2023-05-20T21:12:37;23.4;;;10.1;;
72123;SDS011;63818;37.134;-8.548;2023-05-20T21:17:23;21.0;;;10.1;;
72123;SDS011;63818;37.134;-8.548;2023-05-20T21:22:11;22.2;;;9.7;;
72123;SDS011;63818;37.134;-8.548;2023-05-20T21:26:57;19.4;;;9.0;;
72123;SDS011;63818;37.134;-8.548;2023-05-20T21:31:49;16.0;;;9.1;;
72123;SDS011;63818;37.134;-8.548;2023-05-20T21:36:39;18.2;;;9.0;;
72123;SDS011;63818;37.134;-8.548;2023-05-20T21:41:29;19.3;;;8.7;;
72123;SDS011;63818;37.134;-8.548;2023-05-20T21:46:15;19.0;;;8.5;;
72123;SDS011;63818;37.134;-8.548;2023-05-20T21:51:01;19.0;;;8.5;;
72123;SDS011;63818;37.134;-8.548;2023-05-20T21:55:49;16.0;;;8.7;;
72123;SDS011;63818;37.134;-8.548;2023-05-20T22:00:41;15.8;;;9.0;;
72123;SDS011;63818;37.134;-8.548;2023-05-20T22:05:29;17.9;;;8.8;;
72123;SDS011;63818;37.134;-8.548;2023-05-20T22:10:15;19.7;;;8.8;;
72123;SDS011;63818;37.134;-8.548;2023-05-20T22:15:15;19.8;;;9.2;;
72123;SDS011;63818;37.134;-8.548;2023-05-20T22:20:04;18.1;;;9.1;;
72123;SDS011;63818;37.134;-8.548;2023-05-20T22:24:51;19.9;;;8.9;;
72123;SDS011;63818;37.134;-8.548;2023-05-20T22:29:36;20.2;;;9.0;;
72123;SDS011;63818;37.134;-8.548;2023-05-20T22:34:24;22.3;;;9.1;;
72123;SDS011;63818;37.134;-8.548;2023-05-20T22:39:14;22.9;;;9.3;;
72123;SDS011;63818;37.134;-8.548;2023-05-20T22:44:09;18.7;;;9.4;;
72123;SDS011;63818;37.134;-8.548;2023-05-20T22:48:58;19.7;;;9.7;;
72123;SDS011;63818;37.134;-8.548;2023-05-20T22:53:43;20.4;;;9.7;;
72123;SDS011;63818;37.134;-8.548;2023-05-20T22:58:33;17.9;;;8.9;;
72123;SDS011;63818;37.134;-8.548;2023-05-20T23:03:20;19.5;;;8.6;;
72123;SDS011;63818;37.134;-8.548;2023-05-20T23:08:06;20.2;;;8.8;;
72123;SDS011;63818;37.134;-8.548;2023-05-20T23:12:56;19.7;;;9.0;;
72123;SDS011;63818;37.134;-8.548;2023-05-20T23:17:41;21.2;;;9.1;;
72123;SDS011;63818;37.134;-8.548;2023-05-20T23:22:30;19.5;;;9.3;;
72123;SDS011;63818;37.134;-8.548;2023-05-20T23:27:16;17.3;;;9.3;;
72123;SDS011;63818;37.134;-8.548;2023-05-20T23:32:04;15.9;;;9.2;;
72123;SDS011;63818;37.134;-8.548;2023-05-20T23:36:53;18.1;;;9.8;;
72123;SDS011;63818;37.134;-8.548;2023-05-20T23:41:39;17.2;;;9.4;;
72123;SDS011;63818;37.134;-8.548;2023-05-20T23:46:26;15.7;;;8.6;;
72123;SDS011;63818;37.134;-8.548;2023-05-20T23:51:14;18.1;;;9.1;;
72123;SDS011;63818;37.134;-8.548;2023-05-20T23:56:01;19.5;;;9.8;;
